Aérodrome :
LOGIN :

S'inscrire | Disclaimer

   EN    FR    IT 

 










Légende :    VFR   VFR Marginal   IFR   IFR Intensif   IFR Très Intensif
Visi : 
Plafond : 
>= 8 km
>= 3000ft
5 à 8 km
1000 à 3000 ft
1500m à 5 km
500 à 1000 ft
800 à 1500m
200 à 500 ft
< 800m
< 200 ft
Symboles :   Orages  Brouillard  Fortes neiges  Fortes précipitations  Vent > 20 kt
SIGMETs :   Divers  Orages  Givrage  Turbulence  Onde Orograph.  Cendres Volcan.






- Altitude de l'aérodrome : 526 ft
- Code IATA : LTN


EGGW - London Luton

DERNIER METAR :
  • 281220Z AUTO 17013KT 5000 -RA OVC004 05/04 Q1003

METARs EXPIRÉS :
  • 281150Z AUTO 16014KT 8000 -RA OVC006/// //////TCU 04/04 Q1004
  • 281120Z AUTO 16016G26KT 9999 -RA BKN006/// OVC011/// //////TCU 04/03 Q1004
  • 281050Z AUTO 16015KT 9000 -RA BKN006/// OVC009/// //////CB 04/03 Q1005
  • 281020Z AUTO 15013KT 9000 -RA BKN006 OVC010 04/03 Q1006
  • 280950Z AUTO 16012KT 9999 -RA OVC009/// //////TCU 04/03 Q1007
  • 280920Z AUTO 16010KT 9000 -RA SCT011/// BKN016/// OVC028/// //////TCU 03/02 Q1008

TAF AMD TAF EGGW
Valide du 28 à 12h jusqu'au 29 à 12h UTC


281149Z 2812/2912 16015KT 9999 SCT007 BKN018
TEMPO 2812/2909 4000 RADZ BKN004
TEMPO 2812/2815 16018G28KT
BECMG 2814/2817 22015KT
TEMPO 2815/2902 21020G32KT
BECMG 2902/2905 20024G37KT
PROB30
TEMPO 2906/2909 1400 +RA
BECMG 2907/2909 26016G26KT
PROB30
TEMPO 2909/2912 7000 SHRA BKN012
ATIS : +44 1582 395 204



MET'MAP, la Météo Aéronautique d'un coup d'oeil ! - Copyright ORBIFLY Décembre 2007 - Disclaimer

ORBIFLY MET'MAP TEAM :

Programmation & Développement : Alexandra Zaïnal
Sur une idée originale de : Baudouin d'Aumeries
Assistance à la programmation : Marc-Olivier Méhu
Soutien technique & logistique : Manuel Goepfert

Contact : metmap@orbifly.com




SOURCES & CREDITS :

   NOAA